Time;durP1;ratioP1;P1;durP2;ratioP2;P2;SDS_P1;SDS_P2;PMS_P1;PMS_P2;Temp;Humidity;BMP_temperature;BMP_pressure;BME280_temperature;BME280_humidity;BME280_pressure;Samples;Min_cycle;Max_cycle;Signal;HPM_P1;HPM_P2
2021/01/06 00:04:28;;;;;;;5.47;1.85;;;4.20;99.90;;;;;;10360657;28;20049;-52
2021/01/06 00:09:50;;;;;;;7.68;2.47;;;4.10;99.90;;;;;;10359803;28;20037;-52
2021/01/06 00:15:29;;;;;;;8.80;2.22;;;4.10;99.90;;;;;;10358649;28;20804;-52
2021/01/06 00:20:50;;;;;;;7.03;1.75;;;4.10;99.90;;;;;;10359724;28;20034;-52
2021/01/06 00:26:10;;;;;;;7.10;1.25;;;4.10;99.90;;;;;;10359186;28;20162;-52
2021/01/06 00:31:36;;;;;;;4.90;2.20;;;4.00;99.90;;;;;;10355165;28;20571;-52
2021/01/06 00:36:57;;;;;;;3.90;1.73;;;4.10;99.90;;;;;;10323296;28;20030;-52
2021/01/06 00:42:18;;;;;;;5.35;0.95;;;4.10;99.90;;;;;;10329106;28;22935;-52
2021/01/06 00:47:41;;;;;;;13.13;1.55;;;4.10;99.90;;;;;;10316850;28;20046;-52
2021/01/06 00:53:06;;;;;;;3.95;1.58;;;4.00;99.90;;;;;;10318417;28;20118;-52
2021/01/06 00:58:26;;;;;;;4.20;1.58;;;4.00;99.90;;;;;;10318661;28;20232;-52
2021/01/06 01:03:47;;;;;;;3.30;1.33;;;4.00;99.90;;;;;;10329354;28;20042;-52
2021/01/06 01:09:08;;;;;;;3.80;1.58;;;4.00;99.90;;;;;;10318747;28;20034;-52
2021/01/06 01:14:29;;;;;;;3.53;1.30;;;4.00;99.90;;;;;;10318663;28;20045;-52
2021/01/06 01:19:50;;;;;;;6.45;1.90;;;3.90;99.90;;;;;;10319931;28;20073;-52
2021/01/06 01:25:23;;;;;;;4.95;1.48;;;3.90;99.90;;;;;;10330106;28;20038;-52
2021/01/06 01:30:45;;;;;;;3.53;1.15;;;3.90;99.90;;;;;;10317225;28;20065;-52
2021/01/06 01:36:06;;;;;;;2.80;1.38;;;3.90;99.90;;;;;;10354898;28;20045;-52
2021/01/06 01:41:27;;;;;;;2.50;1.10;;;3.90;99.90;;;;;;10367622;28;20060;-52
2021/01/06 01:46:51;;;;;;;5.35;1.40;;;3.90;99.90;;;;;;10356455;28;20132;-52
2021/01/06 01:52:23;;;;;;;1.05;0.50;;;3.80;99.90;;;;;;10355171;28;20045;-52
2021/01/06 01:57:50;;;;;;;1.65;1.00;;;3.90;99.90;;;;;;10358004;28;20038;-52
2021/01/06 02:03:30;;;;;;;5.00;1.05;;;3.90;99.90;;;;;;10359255;28;20038;-52
2021/01/06 02:09:02;;;;;;;1.73;0.57;;;3.80;99.90;;;;;;10355296;28;20088;-52
2021/01/06 02:14:35;;;;;;;4.93;1.30;;;3.70;99.90;;;;;;10357175;28;20763;-52
2021/01/06 02:19:56;;;;;;;2.80;0.95;;;3.70;99.90;;;;;;10355094;28;20042;-51
2021/01/06 02:25:18;;;;;;;2.28;0.90;;;3.70;99.90;;;;;;10356383;28;20053;-52
2021/01/06 02:30:40;;;;;;;3.58;1.02;;;3.70;99.90;;;;;;10355717;28;20119;-52
2021/01/06 02:36:01;;;;;;;6.38;2.08;;;3.60;99.90;;;;;;10356987;28;20129;-52
2021/01/06 02:41:22;;;;;;;4.22;1.08;;;3.60;99.90;;;;;;10353081;28;20123;-52
2021/01/06 02:46:44;;;;;;;2.15;0.98;;;3.60;99.90;;;;;;10354932;28;20241;-52
2021/01/06 02:52:15;;;;;;;3.70;1.42;;;3.60;99.90;;;;;;10371519;28;20636;-52
2021/01/06 02:57:37;;;;;;;3.47;1.38;;;3.50;99.90;;;;;;10351792;28;20100;-52
2021/01/06 03:03:00;;;;;;;3.13;1.30;;;3.60;99.90;;;;;;10359721;28;20040;-52
2021/01/06 03:08:21;;;;;;;3.85;1.55;;;3.50;99.90;;;;;;10355752;28;20406;-52
2021/01/06 03:13:42;;;;;;;3.67;1.27;;;3.70;99.90;;;;;;10356481;28;20046;-52
2021/01/06 03:19:03;;;;;;;3.45;0.75;;;3.50;99.90;;;;;;10359150;28;20045;-52
2021/01/06 03:24:30;;;;;;;2.17;1.00;;;3.40;99.90;;;;;;10362977;28;20503;-52
2021/01/06 03:29:52;;;;;;;6.38;1.85;;;3.40;99.90;;;;;;10364010;28;20099;-52
2021/01/06 03:35:22;;;;;;;2.47;0.70;;;3.40;99.90;;;;;;10364127;28;20128;-52
2021/01/06 03:40:47;;;;;;;6.25;1.80;;;3.30;99.90;;;;;;10362141;28;20041;-52
2021/01/06 03:46:19;;;;;;;2.47;0.80;;;3.30;99.90;;;;;;10360372;28;20760;-52
2021/01/06 03:52:02;;;;;;;5.00;1.85;;;3.30;99.90;;;;;;10364930;28;20030;-52
2021/01/06 03:57:26;;;;;;;3.55;1.35;;;3.30;99.90;;;;;;10360238;28;20478;-52
2021/01/06 04:02:52;;;;;;;2.72;1.35;;;3.20;99.90;;;;;;10364057;28;20065;-52
2021/01/06 04:08:19;;;;;;;2.90;1.27;;;3.30;99.90;;;;;;10358110;28;20481;-52
2021/01/06 04:13:40;;;;;;;2.20;1.02;;;3.30;99.90;;;;;;10363643;28;20042;-52
2021/01/06 04:19:01;;;;;;;4.93;1.00;;;3.20;99.90;;;;;;10369077;28;20058;-52
2021/01/06 04:24:22;;;;;;;4.03;1.63;;;3.30;99.90;;;;;;10359390;28;20458;-52
2021/01/06 04:29:43;;;;;;;4.53;1.20;;;3.30;99.90;;;;;;10357253;28;20830;-52
2021/01/06 04:35:08;;;;;;;2.97;1.13;;;3.30;99.90;;;;;;10359060;28;20523;-52
2021/01/06 04:40:39;;;;;;;3.08;1.08;;;3.30;99.90;;;;;;10357448;28;20806;-52
2021/01/06 04:46:24;;;;;;;3.13;0.82;;;3.20;99.90;;;;;;10359972;28;21448;-52
2021/01/06 04:52:00;;;;;;;1.13;0.63;;;3.20;99.90;;;;;;10356470;28;20491;-52
2021/01/06 04:57:58;;;;;;;4.00;0.90;;;3.20;99.90;;;;;;10359032;28;20042;-52
2021/01/06 05:03:32;;;;;;;3.65;1.15;;;3.10;99.90;;;;;;10360778;28;20050;-52
2021/01/06 05:08:55;;;;;;;4.32;1.38;;;3.20;99.90;;;;;;10356277;28;20144;-52
2021/01/06 05:14:21;;;;;;;2.25;0.60;;;3.30;99.90;;;;;;10358069;28;20246;-52
2021/01/06 05:19:48;;;;;;;4.57;1.00;;;3.20;99.90;;;;;;10364545;28;20382;-52
2021/01/06 05:25:13;;;;;;;11.48;1.98;;;3.20;99.90;;;;;;10358171;28;20045;-52
2021/01/06 05:30:35;;;;;;;3.47;1.63;;;3.10;99.90;;;;;;10359546;28;20048;-51
2021/01/06 05:35:56;;;;;;;6.10;1.55;;;3.10;99.90;;;;;;10356532;28;22398;-52
2021/01/06 05:41:17;;;;;;;4.70;1.00;;;3.20;99.90;;;;;;10358350;28;20722;-52
2021/01/06 05:46:45;;;;;;;4.35;1.45;;;3.10;99.90;;;;;;10360508;28;20041;-51
2021/01/06 05:52:10;;;;;;;1.30;0.52;;;3.00;99.90;;;;;;10356241;28;20034;-52
2021/01/06 05:57:42;;;;;;;1.98;0.65;;;3.10;99.90;;;;;;10357026;28;20032;-52
2021/01/06 06:03:36;;;;;;;3.42;0.85;;;3.10;99.90;;;;;;10354755;28;20038;-52
2021/01/06 06:09:17;;;;;;;3.05;1.13;;;2.90;99.90;;;;;;10347798;28;20042;-52
2021/01/06 06:14:50;;;;;;;2.63;1.13;;;2.90;99.90;;;;;;10345975;28;20046;-51
2021/01/06 06:20:49;;;;;;;1.45;0.65;;;2.90;99.90;;;;;;10346871;28;20049;-52
2021/01/06 06:26:33;;;;;;;9.98;1.20;;;2.90;99.90;;;;;;10348988;28;20659;-52
2021/01/06 06:31:57;;;;;;;2.65;1.42;;;2.80;99.90;;;;;;10349365;28;20111;-51
2021/01/06 06:37:20;;;;;;;3.17;1.80;;;2.90;99.90;;;;;;10341699;28;20049;-52
2021/01/06 06:43:23;;;;;;;1.77;0.60;;;2.90;99.90;;;;;;10352047;28;20041;-52
2021/01/06 06:49:17;;;;;;;3.53;1.27;;;2.90;99.90;;;;;;10346074;28;20524;-52
2021/01/06 06:54:55;;;;;;;3.85;1.20;;;2.90;99.90;;;;;;10345239;28;20033;-52
2021/01/06 07:00:27;;;;;;;4.10;1.45;;;2.90;99.90;;;;;;10349145;28;20045;-51
2021/01/06 07:05:54;;;;;;;3.83;1.33;;;2.90;99.90;;;;;;10345535;28;20034;-52
2021/01/06 07:11:41;;;;;;;2.47;0.90;;;2.90;99.90;;;;;;10343991;28;20057;-52
2021/01/06 07:17:12;;;;;;;2.85;0.90;;;2.80;99.90;;;;;;10345806;28;20505;-51
2021/01/06 07:22:36;;;;;;;3.35;0.93;;;2.90;99.90;;;;;;10348226;28;20556;-52
2021/01/06 07:28:03;;;;;;;3.60;1.27;;;2.90;99.90;;;;;;10359132;28;20042;-52
2021/01/06 07:33:46;;;;;;;5.68;1.25;;;2.90;99.90;;;;;;10344196;28;20164;-52
2021/01/06 07:39:29;;;;;;;3.22;0.82;;;2.90;99.90;;;;;;10347118;28;20037;-52
2021/01/06 07:44:49;;;;;;;3.70;1.35;;;2.90;99.90;;;;;;10349883;28;20042;-52
2021/01/06 07:50:18;;;;;;;3.65;0.85;;;2.80;99.90;;;;;;10348977;28;20041;-52
2021/01/06 07:55:52;;;;;;;4.40;1.50;;;2.80;99.90;;;;;;10346353;28;20048;-52
2021/01/06 08:02:17;;;;;;;2.95;1.38;;;2.80;99.90;;;;;;10348984;28;20176;-52
2021/01/06 08:07:38;;;;;;;5.15;2.33;;;2.90;99.90;;;;;;10271181;28;20627;-52
2021/01/06 08:13:22;;;;;;;3.28;1.30;;;2.90;99.90;;;;;;10350206;28;20034;-51
2021/01/06 08:19:05;;;;;;;3.17;1.45;;;2.90;99.90;;;;;;10356414;28;20184;-52
2021/01/06 08:24:32;;;;;;;3.40;1.38;;;2.90;99.90;;;;;;10352687;28;20074;-52
2021/01/06 08:30:15;;;;;;;3.50;1.75;;;2.90;99.90;;;;;;10355021;28;20041;-51
2021/01/06 08:35:39;;;;;;;3.47;1.35;;;2.90;99.90;;;;;;10355433;28;20046;-52
2021/01/06 08:41:17;;;;;;;3.67;1.55;;;2.90;99.90;;;;;;10356690;28;20034;-52
2021/01/06 08:46:40;;;;;;;5.15;1.75;;;3.00;99.90;;;;;;10351078;28;20068;-51
2021/01/06 08:52:16;;;;;;;4.20;0.98;;;3.00;99.90;;;;;;10350731;28;20714;-51
2021/01/06 08:57:37;;;;;;;5.28;1.30;;;3.00;99.90;;;;;;10353533;28;20117;-52
2021/01/06 09:03:07;;;;;;;1.88;1.27;;;3.00;99.90;;;;;;10357587;28;20638;-52
2021/01/06 09:08:49;;;;;;;1.67;0.98;;;3.10;99.90;;;;;;10357443;28;20103;-52
2021/01/06 09:14:36;;;;;;;2.13;0.70;;;3.10;99.90;;;;;;10368410;28;20033;-52
2021/01/06 09:20:12;;;;;;;2.47;0.90;;;3.10;99.90;;;;;;10360686;28;20069;-52
2021/01/06 09:25:33;;;;;;;10.90;1.83;;;3.10;99.90;;;;;;10359873;28;20096;-52
2021/01/06 09:30:55;;;;;;;4.40;2.08;;;3.20;99.90;;;;;;10363071;28;20042;-52
2021/01/06 09:36:16;;;;;;;2.75;1.15;;;3.20;99.90;;;;;;10360470;28;20160;-52
2021/01/06 09:41:38;;;;;;;2.22;1.20;;;3.30;99.90;;;;;;10361860;28;20046;-52
2021/01/06 09:47:01;;;;;;;5.18;1.55;;;3.30;99.90;;;;;;10360534;28;20046;-52
2021/01/06 09:52:34;;;;;;;2.15;1.08;;;3.30;99.90;;;;;;10358831;28;20385;-52
2021/01/06 09:58:11;;;;;;;2.85;0.50;;;3.40;99.90;;;;;;10360550;28;20049;-51
2021/01/06 10:03:36;;;;;;;2.20;0.75;;;3.40;99.90;;;;;;10359170;28;20142;-52
2021/01/06 10:09:04;;;;;;;3.75;1.45;;;3.50;99.90;;;;;;10361924;28;20068;-52
2021/01/06 10:14:57;;;;;;;1.98;0.85;;;3.60;99.90;;;;;;10359404;28;20041;-52
2021/01/06 10:20:31;;;;;;;2.15;1.02;;;3.70;99.90;;;;;;10359599;28;20041;-52
2021/01/06 10:26:22;;;;;;;1.95;0.82;;;3.60;99.90;;;;;;10357013;28;20045;-52
2021/01/06 10:32:02;;;;;;;2.88;1.10;;;3.70;99.90;;;;;;10357016;28;20061;-52
2021/01/06 10:37:27;;;;;;;5.47;1.65;;;3.70;99.90;;;;;;10356243;28;20042;-52
2021/01/06 10:42:48;;;;;;;4.43;0.82;;;3.60;99.90;;;;;;10357542;28;20038;-52
2021/01/06 10:48:39;;;;;;;3.35;1.38;;;3.70;99.90;;;;;;10361499;28;20069;-51
2021/01/06 10:54:02;;;;;;;2.03;1.17;;;3.70;99.90;;;;;;10356588;28;20183;-52
2021/01/06 10:59:23;;;;;;;3.58;1.15;;;3.70;99.90;;;;;;10351494;28;20309;-52
2021/01/06 11:04:55;;;;;;;4.32;0.93;;;3.70;99.90;;;;;;10350920;28;20034;-52
2021/01/06 11:10:40;;;;;;;3.15;1.13;;;3.80;99.90;;;;;;10352276;28;20128;-51
2021/01/06 11:16:15;;;;;;;1.55;0.75;;;3.80;99.90;;;;;;10350563;28;20046;-51
2021/01/06 11:22:04;;;;;;;1.27;0.50;;;3.70;99.90;;;;;;10349779;28;20044;-52
2021/01/06 11:27:57;;;;;;;3.80;0.90;;;3.80;99.90;;;;;;10351876;28;20037;-51
2021/01/06 11:33:28;;;;;;;3.50;0.75;;;3.80;99.90;;;;;;10348541;28;20057;-51
2021/01/06 11:38:58;;;;;;;1.73;0.50;;;3.80;99.90;;;;;;10355260;28;20038;-51
2021/01/06 11:44:36;;;;;;;2.50;0.73;;;4.00;99.90;;;;;;10359723;28;20436;-52
2021/01/06 11:49:57;;;;;;;2.83;1.15;;;3.90;99.90;;;;;;10359742;28;20402;-51
2021/01/06 11:55:37;;;;;;;1.77;0.60;;;4.00;99.90;;;;;;10358913;28;20070;-51
2021/01/06 12:01:00;;;;;;;;;;;4.00;99.90;;;;;;10357738;28;20617;-52
2021/01/06 12:06:49;;;;;;;0.93;0.40;;;3.90;99.90;;;;;;10350736;28;19928;-51
2021/01/06 12:12:20;;;;;;;0.70;0.22;;;3.90;99.90;;;;;;10359105;28;20034;-51
2021/01/06 12:17:54;;;;;;;5.32;0.52;;;3.90;99.90;;;;;;10355559;28;20057;-52
2021/01/06 12:23:15;;;;;;;3.65;1.40;;;3.90;99.90;;;;;;10358563;28;20220;-52
2021/01/06 12:28:52;;;;;;;0.70;0.57;;;3.80;99.90;;;;;;10357178;28;20045;-52
2021/01/06 12:34:37;;;;;;;1.00;0.47;;;3.90;99.90;;;;;;10354400;28;20060;-52
2021/01/06 12:39:58;;;;;;;2.22;0.77;;;4.00;99.90;;;;;;10348068;28;20094;-51
2021/01/06 12:45:32;;;;;;;1.52;0.80;;;3.90;99.90;;;;;;10357088;28;20496;-52
2021/01/06 12:51:18;;;;;;;0.55;0.20;;;3.90;99.90;;;;;;10350211;28;20137;-51
2021/01/06 12:56:49;;;;;;;3.85;0.88;;;3.90;99.90;;;;;;10349381;28;20034;-52
2021/01/06 13:02:27;;;;;;;2.70;1.00;;;3.90;99.90;;;;;;10351186;28;20115;-51
2021/01/06 13:07:55;;;;;;;0.82;0.38;;;3.90;99.90;;;;;;10355543;28;20042;-52
2021/01/06 13:13:38;;;;;;;3.00;0.98;;;3.90;99.90;;;;;;10357203;28;20038;-51
2021/01/06 13:19:05;;;;;;;3.00;0.68;;;3.90;99.90;;;;;;10351481;28;20099;-51
2021/01/06 13:24:31;;;;;;;4.90;1.63;;;3.90;99.90;;;;;;10350861;28;20034;-51
2021/01/06 13:29:58;;;;;;;2.38;0.80;;;4.00;99.90;;;;;;10351284;28;20045;-52
2021/01/06 13:35:34;;;;;;;3.50;0.55;;;3.90;99.90;;;;;;10350751;28;21299;-51
2021/01/06 13:41:01;;;;;;;1.67;0.80;;;3.90;99.90;;;;;;10350261;28;20033;-51
2021/01/06 13:46:38;;;;;;;1.15;0.40;;;3.90;99.90;;;;;;10351366;28;20030;-51
2021/01/06 13:52:11;;;;;;;1.58;0.70;;;3.80;99.90;;;;;;10350881;28;20061;-52
2021/01/06 13:58:04;;;;;;;1.63;0.80;;;3.80;99.90;;;;;;10351000;28;20032;-52
2021/01/06 14:03:50;;;;;;;0.80;0.45;;;3.80;99.90;;;;;;10354559;28;20049;-51
2021/01/06 14:09:35;;;;;;;3.03;0.60;;;3.80;99.90;;;;;;10351978;28;20038;-51
2021/01/06 14:15:12;;;;;;;3.05;1.00;;;3.80;99.90;;;;;;10354717;28;20049;-52
2021/01/06 14:20:43;;;;;;;1.50;0.52;;;3.80;99.90;;;;;;10351599;28;20469;-52
2021/01/06 14:26:29;;;;;;;1.90;0.60;;;3.70;99.90;;;;;;10352780;28;20364;-51
2021/01/06 14:32:30;;;;;;;1.80;0.50;;;3.70;99.90;;;;;;10352919;28;20434;-52
2021/01/06 14:38:10;;;;;;;3.58;0.80;;;3.70;99.90;;;;;;10347054;28;20415;-52
2021/01/06 14:43:40;;;;;;;1.30;0.40;;;3.70;99.90;;;;;;10355960;28;20037;-51
2021/01/06 14:49:23;;;;;;;4.05;1.10;;;3.70;99.90;;;;;;10367276;28;20071;-51
2021/01/06 14:54:59;;;;;;;1.88;0.82;;;3.70;99.90;;;;;;10353998;28;20045;-51
2021/01/06 15:00:27;;;;;;;2.42;0.68;;;3.70;99.90;;;;;;10349899;28;20042;-51
2021/01/06 15:06:07;;;;;;;3.00;0.95;;;3.70;99.90;;;;;;10356088;28;20481;-51
2021/01/06 15:11:35;;;;;;;0.85;0.55;;;3.70;99.90;;;;;;10352456;28;20053;-51
2021/01/06 15:16:59;;;;;;;2.45;0.38;;;3.70;99.90;;;;;;10357043;28;20484;-51
2021/01/06 15:22:31;;;;;;;4.43;0.40;;;3.70;99.90;;;;;;10360687;28;20208;-51
2021/01/06 15:28:01;;;;;;;3.75;0.73;;;3.70;99.90;;;;;;10359367;28;20033;-52
2021/01/06 15:33:38;;;;;;;1.30;0.40;;;3.60;99.90;;;;;;10358512;28;20054;-51
2021/01/06 15:39:17;;;;;;;0.45;0.20;;;3.60;99.90;;;;;;10366064;28;20464;-51
2021/01/06 15:44:39;;;;;;;;;;;3.60;99.90;;;;;;10355469;28;20314;-51
2021/01/06 15:50:14;;;;;;;1.65;0.45;;;3.50;99.90;;;;;;10358881;28;20302;-51
2021/01/06 15:55:35;;;;;;;4.53;0.57;;;3.50;99.90;;;;;;10350394;28;21917;-51
2021/01/06 16:01:00;;;;;;;1.33;0.63;;;3.50;99.90;;;;;;10359067;28;20037;-52
2021/01/06 16:06:26;;;;;;;1.55;0.50;;;3.40;99.90;;;;;;10355026;28;20490;-51
2021/01/06 16:12:00;;;;;;;0.75;0.32;;;3.40;99.90;;;;;;10360239;28;20553;-51
2021/01/06 16:17:25;;;;;;;1.15;0.43;;;3.40;99.90;;;;;;10347614;28;20553;-52
2021/01/06 16:22:48;;;;;;;0.85;0.22;;;3.50;99.90;;;;;;10358581;28;20588;-51
2021/01/06 16:28:21;;;;;;;6.05;1.40;;;3.40;99.90;;;;;;10353241;28;20149;-52
2021/01/06 16:33:46;;;;;;;1.92;0.65;;;3.40;99.90;;;;;;10355123;28;20136;-52
2021/01/06 16:39:20;;;;;;;2.38;0.95;;;3.40;99.90;;;;;;10346244;28;20381;-51
2021/01/06 16:44:43;;;;;;;0.73;0.32;;;3.40;99.90;;;;;;10354979;28;20040;-52
2021/01/06 16:50:05;;;;;;;2.15;0.65;;;3.30;99.90;;;;;;10352953;28;20044;-52
2021/01/06 16:55:37;;;;;;;3.75;0.60;;;3.30;99.90;;;;;;10350443;28;20060;-52
2021/01/06 17:01:00;;;;;;;2.95;1.08;;;3.30;99.90;;;;;;10354347;28;20100;-52
2021/01/06 17:06:44;;;;;;;3.20;1.65;;;3.30;99.90;;;;;;10354363;28;20136;-51
2021/01/06 17:12:20;;;;;;;2.33;0.95;;;3.30;99.90;;;;;;10350742;28;20049;-51
2021/01/06 17:17:41;;;;;;;2.70;0.95;;;3.30;99.90;;;;;;10344126;28;20038;-51
2021/01/06 17:23:04;;;;;;;2.80;1.00;;;3.30;99.90;;;;;;10351934;28;20437;-52
2021/01/06 17:28:25;;;;;;;0.93;0.40;;;3.30;99.90;;;;;;10351701;28;20193;-51
2021/01/06 17:33:47;;;;;;;1.02;0.38;;;3.30;99.90;;;;;;10354668;28;20049;-51
2021/01/06 17:39:08;;;;;;;4.00;0.90;;;3.30;99.90;;;;;;10345316;28;20042;-51
2021/01/06 17:44:30;;;;;;;1.60;1.02;;;3.30;99.90;;;;;;10351253;28;20096;-51
2021/01/06 17:49:51;;;;;;;3.35;0.95;;;3.30;99.90;;;;;;10347691;28;20520;-51
2021/01/06 17:55:13;;;;;;;4.53;1.15;;;3.30;99.90;;;;;;10347242;28;20129;-52
2021/01/06 18:00:42;;;;;;;0.43;0.28;;;3.30;99.90;;;;;;10355182;28;20044;-51
2021/01/06 18:06:03;;;;;;;2.15;0.57;;;3.20;99.90;;;;;;10349586;28;20052;-52
2021/01/06 18:11:34;;;;;;;3.08;1.42;;;3.30;99.90;;;;;;10349397;28;20196;-51
2021/01/06 18:16:59;;;;;;;4.03;0.93;;;3.30;99.90;;;;;;10350916;28;20560;-51
2021/01/06 18:22:25;;;;;;;1.63;0.60;;;3.20;99.90;;;;;;10348443;28;20037;-52
2021/01/06 18:27:46;;;;;;;2.60;1.17;;;3.20;99.90;;;;;;10355750;28;20052;-51
2021/01/06 18:33:21;;;;;;;0.95;0.68;;;3.20;99.90;;;;;;10354238;28;20045;-51
2021/01/06 18:38:49;;;;;;;1.58;0.73;;;3.20;99.90;;;;;;10350241;28;20037;-51
2021/01/06 18:44:18;;;;;;;1.20;0.70;;;3.20;99.90;;;;;;10352353;28;20787;-51
2021/01/06 18:49:39;;;;;;;1.65;0.73;;;3.20;99.90;;;;;;10349492;28;20046;-51
2021/01/06 18:55:00;;;;;;;1.83;1.00;;;3.10;99.90;;;;;;10346112;28;20040;-52
2021/01/06 19:00:26;;;;;;;2.15;0.68;;;3.10;99.90;;;;;;10350032;28;20514;-52
2021/01/06 19:05:49;;;;;;;2.25;0.60;;;3.00;99.90;;;;;;10353420;28;20042;-52
2021/01/06 19:11:16;;;;;;;1.77;1.00;;;3.00;99.90;;;;;;10350864;28;20111;-52
2021/01/06 19:16:37;;;;;;;3.55;1.02;;;3.00;99.90;;;;;;10365683;28;20529;-52
2021/01/06 19:22:02;;;;;;;2.08;1.02;;;3.10;99.90;;;;;;10346813;28;20486;-52
2021/01/06 19:27:23;;;;;;;3.10;0.98;;;2.90;99.90;;;;;;10348463;28;20768;-52
2021/01/06 19:32:58;;;;;;;2.40;0.77;;;2.90;99.90;;;;;;10348102;28;20430;-52
2021/01/06 19:38:22;;;;;;;1.95;0.75;;;2.90;99.90;;;;;;10349174;28;20045;-52
2021/01/06 19:43:45;;;;;;;6.05;1.20;;;2.90;99.90;;;;;;10351175;28;20731;-51
2021/01/06 19:49:20;;;;;;;2.72;1.10;;;2.90;99.90;;;;;;10345217;28;20052;-51
2021/01/06 19:54:41;;;;;;;2.72;0.80;;;2.90;99.90;;;;;;10347061;28;20034;-52
2021/01/06 20:00:06;;;;;;;5.10;2.58;;;2.90;99.90;;;;;;10347194;28;20041;-51
2021/01/06 20:05:27;;;;;;;4.45;1.08;;;2.90;99.90;;;;;;10352151;28;20069;-52
2021/01/06 20:10:49;;;;;;;2.72;1.13;;;2.90;99.90;;;;;;10352738;28;20136;-52
2021/01/06 20:16:13;;;;;;;1.73;0.93;;;2.90;99.90;;;;;;10353990;28;20513;-50
2021/01/06 20:21:35;;;;;;;5.65;1.38;;;3.00;99.90;;;;;;10350776;28;20037;-51
2021/01/06 20:26:56;;;;;;;2.17;0.82;;;3.00;99.90;;;;;;10352207;28;20591;-52
2021/01/06 20:32:17;;;;;;;2.20;0.80;;;3.00;99.90;;;;;;10351690;28;20522;-51
2021/01/06 20:37:38;;;;;;;2.38;0.82;;;2.90;99.90;;;;;;10351839;28;20057;-51
2021/01/06 20:42:59;;;;;;;1.63;1.08;;;3.00;99.90;;;;;;10354894;28;20072;-51
2021/01/06 20:48:20;;;;;;;2.95;0.68;;;2.90;99.90;;;;;;10352064;28;21794;-51
2021/01/06 20:53:41;;;;;;;2.50;0.73;;;2.90;99.90;;;;;;10346870;28;20041;-51
2021/01/06 20:59:02;;;;;;;2.05;0.60;;;2.90;99.90;;;;;;10348994;28;20038;-51
2021/01/06 21:04:23;;;;;;;1.65;1.02;;;2.90;99.90;;;;;;10356130;28;20034;-52
2021/01/06 21:09:44;;;;;;;0.75;0.52;;;2.90;99.90;;;;;;10355713;28;20087;-52
2021/01/06 21:15:06;;;;;;;1.75;1.17;;;2.90;99.90;;;;;;10358336;28;20205;-51
2021/01/06 21:20:27;;;;;;;2.88;0.80;;;2.90;99.90;;;;;;10369495;28;20052;-51
2021/01/06 21:25:48;;;;;;;2.42;0.77;;;2.90;99.90;;;;;;10358227;28;20641;-52
2021/01/06 21:31:09;;;;;;;2.33;0.57;;;2.90;99.90;;;;;;10360299;28;20047;-51
2021/01/06 21:36:30;;;;;;;4.47;0.85;;;2.80;99.90;;;;;;10359344;28;20133;-51
2021/01/06 21:41:51;;;;;;;5.40;0.88;;;2.80;99.90;;;;;;10358782;28;20091;-51
2021/01/06 21:47:13;;;;;;;1.70;1.00;;;2.80;99.90;;;;;;10359001;28;20061;-51
2021/01/06 21:52:34;;;;;;;4.22;0.80;;;2.80;99.90;;;;;;10354398;28;20111;-52
2021/01/06 21:57:56;;;;;;;2.40;1.00;;;2.80;99.90;;;;;;10356161;28;20049;-52
2021/01/06 22:03:17;;;;;;;3.28;1.75;;;2.80;99.90;;;;;;10357438;28;20030;-52
2021/01/06 22:08:38;;;;;;;3.10;1.10;;;2.80;99.90;;;;;;10359214;28;20041;-52
2021/01/06 22:14:00;;;;;;;2.30;0.70;;;2.90;99.90;;;;;;10358601;28;20042;-52
2021/01/06 22:19:22;;;;;;;4.45;1.00;;;2.80;99.90;;;;;;10357300;28;20037;-52
2021/01/06 22:24:43;;;;;;;0.98;0.40;;;2.80;99.90;;;;;;10355921;28;20050;-51
2021/01/06 22:30:06;;;;;;;2.05;0.50;;;2.80;99.90;;;;;;10355487;28;20067;-52
2021/01/06 22:35:27;;;;;;;1.70;1.02;;;2.80;99.90;;;;;;10346369;28;20053;-52
2021/01/06 22:40:48;;;;;;;1.67;1.00;;;2.70;99.90;;;;;;10359312;28;20041;-52
2021/01/06 22:46:09;;;;;;;1.23;0.52;;;2.70;99.90;;;;;;10358702;28;20042;-51
2021/01/06 22:51:30;;;;;;;1.35;0.65;;;2.70;99.90;;;;;;10368686;28;20050;-52
2021/01/06 22:56:51;;;;;;;1.88;1.02;;;2.60;99.90;;;;;;10355726;28;20099;-52
2021/01/06 23:02:12;;;;;;;1.15;0.65;;;2.60;99.90;;;;;;10354408;28;20048;-52
2021/01/06 23:07:33;;;;;;;1.60;0.70;;;2.50;99.90;;;;;;10353720;28;20037;-52
2021/01/06 23:12:54;;;;;;;4.50;0.73;;;2.50;99.90;;;;;;10353446;28;20375;-52
2021/01/06 23:18:15;;;;;;;4.38;0.77;;;2.50;99.90;;;;;;10357926;28;20065;-52
2021/01/06 23:23:36;;;;;;;3.78;0.85;;;2.40;99.90;;;;;;10357118;28;20033;-52
2021/01/06 23:28:57;;;;;;;2.65;0.60;;;2.40;99.90;;;;;;10356230;28;20493;-52
2021/01/06 23:34:19;;;;;;;1.67;0.90;;;2.30;99.90;;;;;;10357300;28;20062;-52
2021/01/06 23:39:40;;;;;;;4.78;1.77;;;2.30;99.90;;;;;;10360988;28;20084;-52
2021/01/06 23:45:01;;;;;;;2.80;0.98;;;2.30;99.90;;;;;;10363206;28;20041;-51
2021/01/06 23:50:22;;;;;;;1.15;0.65;;;2.30;99.90;;;;;;10376972;28;20072;-52
2021/01/06 23:55:43;;;;;;;2.20;0.68;;;2.30;99.90;;;;;;10361581;28;20065;-52
